Time;durP1;ratioP1;P1;durP2;ratioP2;P2;SDS_P1;SDS_P2;PMS_P1;PMS_P2;Temp;Humidity;BMP_temperature;BMP_pressure;BME280_temperature;BME280_humidity;BME280_pressure;Samples;Min_cycle;Max_cycle;Signal;HPM_P1;HPM_P2
2021/08/25 00:01:48;;;;;;;9.10;4.50;;;;;;;12.16;75.67;100535.03;4973435;28;20501;-70
2021/08/25 00:04:13;;;;;;;9.35;4.32;;;;;;;12.11;76.24;100531.75;4989916;28;20034;-68
2021/08/25 00:06:38;;;;;;;9.40;4.38;;;;;;;12.05;76.31;100524.06;4990831;28;20498;-70
2021/08/25 00:09:04;;;;;;;9.38;4.18;;;;;;;12.04;76.84;100525.00;4991210;28;20034;-70
2021/08/25 00:11:30;;;;;;;5.63;3.38;;;;;;;12.02;76.30;100522.41;4991106;28;20034;-69
2021/08/25 00:13:56;;;;;;;5.30;3.72;;;;;;;12.08;76.28;100531.84;4990879;28;20050;-70
2021/08/25 00:16:21;;;;;;;10.00;4.28;;;;;;;12.08;76.00;100521.28;4988863;28;20038;-69
2021/08/25 00:18:47;;;;;;;6.57;3.92;;;;;;;12.08;75.81;100520.44;4991107;28;20473;-69
2021/08/25 00:21:12;;;;;;;10.32;4.47;;;;;;;11.97;76.32;100513.81;4989461;28;20038;-69
2021/08/25 00:23:37;;;;;;;7.93;3.85;;;;;;;11.93;76.48;100511.38;4990640;28;20117;-69
2021/08/25 00:26:03;;;;;;;7.80;4.32;;;;;;;11.95;76.28;100502.47;4991531;28;20070;-69
2021/08/25 00:28:28;;;;;;;7.35;3.83;;;;;;;11.90;76.70;100506.25;5007453;28;20038;-69
2021/08/25 00:30:54;;;;;;;8.57;3.50;;;;;;;11.86;76.50;100505.47;5001900;28;20537;-69
2021/08/25 00:33:19;;;;;;;10.57;4.80;;;;;;;11.83;76.95;100501.16;5010089;28;20133;-69
2021/08/25 00:35:44;;;;;;;7.38;3.72;;;;;;;11.81;76.81;100504.81;5010430;28;20113;-69
2021/08/25 00:38:10;;;;;;;11.25;3.65;;;;;;;11.80;76.25;100503.09;5010669;28;20386;-69
2021/08/25 00:40:35;;;;;;;8.00;3.28;;;;;;;11.81;76.76;100497.75;5009265;28;20030;-68
2021/08/25 00:43:09;;;;;;;6.25;3.92;;;;;;;11.79;76.07;100498.75;5009962;28;20040;-70
2021/08/25 00:45:37;;;;;;;7.45;3.90;;;;;;;11.75;76.28;100494.50;5009636;28;20030;-69
2021/08/25 00:48:03;;;;;;;7.50;4.18;;;;;;;11.72;76.86;100490.22;5009336;28;20038;-68
2021/08/25 00:50:29;;;;;;;12.15;4.40;;;;;;;11.74;76.49;100493.66;5010051;28;20041;-69
2021/08/25 00:52:54;;;;;;;6.97;3.75;;;;;;;11.73;76.97;100489.28;5009976;28;20125;-69
2021/08/25 00:55:19;;;;;;;5.35;3.35;;;;;;;11.71;76.37;100492.91;5009950;28;20042;-69
2021/08/25 00:57:45;;;;;;;5.82;3.63;;;;;;;11.69;76.40;100498.28;5009346;28;20030;-68
2021/08/25 01:00:11;;;;;;;8.77;4.28;;;;;;;11.65;76.71;100495.84;5010264;28;20478;-68
2021/08/25 01:03:06;;;;;;;6.10;3.78;;;;;;;11.60;76.70;100496.88;4985765;28;20041;-69
2021/08/25 01:05:35;;;;;;;5.80;4.00;;;;;;;11.53;77.36;100486.63;5009670;28;20050;-69
2021/08/25 01:08:02;;;;;;;5.38;3.30;;;;;;;11.53;77.10;100482.19;5009464;28;20528;-68
2021/08/25 01:10:32;;;;;;;6.80;4.20;;;;;;;11.54;77.01;100483.06;5008088;28;20452;-68
2021/08/25 01:12:59;;;;;;;6.68;4.25;;;;;;;11.52;77.02;100480.50;5010427;28;20038;-68
2021/08/25 01:15:33;;;;;;;9.30;3.70;;;;;;;11.53;76.74;100473.44;5010904;28;20057;-68
2021/08/25 01:18:00;;;;;;;7.95;3.85;;;;;;;11.47;77.05;100473.66;5013140;28;20042;-68
2021/08/25 01:20:27;;;;;;;8.00;4.35;;;;;;;11.43;77.09;100472.09;5013126;28;20255;-68
2021/08/25 01:22:53;;;;;;;8.07;4.28;;;;;;;11.38;77.87;100474.94;5012360;28;20096;-68
2021/08/25 01:25:19;;;;;;;6.28;3.78;;;;;;;11.34;77.72;100476.81;5010993;28;20512;-69
2021/08/25 01:27:50;;;;;;;8.70;4.00;;;;;;;11.33;77.53;100475.13;5009995;28;20045;-69
2021/08/25 01:30:17;;;;;;;8.50;3.50;;;;;;;11.34;77.69;100475.97;5011077;28;20057;-69
2021/08/25 01:32:43;;;;;;;6.68;3.25;;;;;;;11.42;77.34;100476.53;5010957;28;20302;-69
2021/08/25 01:35:09;;;;;;;7.28;4.43;;;;;;;11.42;77.37;100478.28;5007314;28;20114;-69
2021/08/25 01:37:35;;;;;;;7.57;4.43;;;;;;;11.37;77.23;100474.09;4989128;28;20422;-69
2021/08/25 01:40:00;;;;;;;8.43;4.97;;;;;;;11.36;77.89;100468.84;4988845;28;20053;-69
2021/08/25 01:42:26;;;;;;;5.00;3.08;;;;;;;11.37;76.87;100470.56;4989777;28;20494;-70
2021/08/25 01:44:53;;;;;;;6.25;3.22;;;;;;;11.36;77.13;100466.22;4990293;28;20038;-69
2021/08/25 01:47:20;;;;;;;7.85;4.47;;;;;;;11.33;77.29;100475.13;4969628;28;20054;-69
2021/08/25 01:49:52;;;;;;;7.57;3.60;;;;;;;11.29;77.58;100473.50;4969997;28;20039;-69
2021/08/25 01:52:17;;;;;;;8.25;4.07;;;;;;;11.25;77.63;100469.31;4969545;28;20660;-68
2021/08/25 01:54:46;;;;;;;6.45;3.67;;;;;;;11.24;77.30;100470.22;4970001;28;20126;-69
2021/08/25 01:57:11;;;;;;;8.35;4.03;;;;;;;11.23;77.36;100465.00;4972538;28;20031;-68
2021/08/25 01:59:37;;;;;;;6.95;4.07;;;;;;;11.22;77.47;100460.63;4971194;28;20086;-69
2021/08/25 02:02:03;;;;;;;6.97;4.35;;;;;;;11.17;77.62;100458.19;4969883;28;20085;-69
2021/08/25 02:04:28;;;;;;;7.85;3.80;;;;;;;11.16;77.50;100452.06;4970112;28;20398;-69
2021/08/25 02:06:54;;;;;;;8.93;3.97;;;;;;;11.14;77.55;100451.25;4969685;28;20026;-67
2021/08/25 02:09:20;;;;;;;7.70;3.88;;;;;;;11.12;77.56;100444.31;4970878;28;20041;-67
2021/08/25 02:11:46;;;;;;;5.68;3.85;;;;;;;11.10;77.71;100444.41;4970357;28;20067;-68
2021/08/25 02:14:11;;;;;;;5.20;3.30;;;;;;;11.11;77.66;100443.47;4970426;28;20069;-68
2021/08/25 02:16:37;;;;;;;7.95;3.75;;;;;;;11.12;77.30;100446.97;4969162;28;20039;-68
2021/08/25 02:19:02;;;;;;;9.45;4.40;;;;;;;11.11;77.38;100448.75;4969766;28;20086;-68
2021/08/25 02:21:27;;;;;;;8.73;4.55;;;;;;;11.08;77.51;100446.25;4970899;28;20027;-69
2021/08/25 02:23:53;;;;;;;8.15;3.88;;;;;;;11.06;77.73;100439.31;4972493;28;20035;-69
2021/08/25 02:26:18;;;;;;;7.72;3.97;;;;;;;11.04;77.88;100439.34;4991380;28;20522;-70
2021/08/25 02:28:45;;;;;;;8.68;3.67;;;;;;;10.99;78.10;100432.56;5004105;28;20034;-69
2021/08/25 02:31:11;;;;;;;6.03;3.75;;;;;;;10.93;78.44;100436.31;5000748;28;20116;-69
2021/08/25 02:33:38;;;;;;;6.22;4.00;;;;;;;10.92;78.73;100431.94;5008481;28;20034;-69
2021/08/25 02:36:04;;;;;;;9.18;4.85;;;;;;;10.90;78.51;100433.78;5008681;28;20045;-70
2021/08/25 02:38:29;;;;;;;5.65;4.05;;;;;;;10.86;78.48;100426.94;5008084;28;20038;-69
2021/08/25 02:40:54;;;;;;;6.00;3.80;;;;;;;10.85;78.73;100428.69;5008656;28;20169;-68
2021/08/25 02:43:20;;;;;;;8.27;4.55;;;;;;;10.87;78.44;100426.84;5009188;28;20038;-68
2021/08/25 02:45:46;;;;;;;6.90;4.35;;;;;;;10.82;78.20;100434.09;5010092;28;20060;-69
2021/08/25 02:48:11;;;;;;;5.68;3.60;;;;;;;10.81;78.53;100429.75;5010925;28;20041;-69
2021/08/25 02:50:36;;;;;;;8.82;4.38;;;;;;;10.83;78.61;100427.03;5012342;28;20036;-69
2021/08/25 02:53:02;;;;;;;6.55;5.07;;;;;;;10.84;78.36;100424.34;5012056;28;20034;-68
2021/08/25 02:55:27;;;;;;;8.50;4.07;;;;;;;10.83;78.53;100427.03;5012241;28;20603;-69
2021/08/25 02:57:52;;;;;;;7.90;4.93;;;;;;;10.79;78.65;100421.03;5011531;28;20038;-69
2021/08/25 03:00:18;;;;;;;6.90;4.28;;;;;;;10.77;78.59;100422.88;5011912;28;20133;-69
2021/08/25 03:02:43;;;;;;;10.35;4.80;;;;;;;10.77;78.55;100422.88;5011587;28;20131;-69
2021/08/25 03:05:09;;;;;;;12.13;4.25;;;;;;;10.71;78.68;100421.34;5012086;28;20485;-70
2021/08/25 03:07:34;;;;;;;5.95;4.30;;;;;;;10.76;79.19;100420.31;5011455;28;20034;-69
2021/08/25 03:10:00;;;;;;;7.10;3.95;;;;;;;10.77;78.54;100417.59;5012257;28;20033;-70
2021/08/25 03:12:25;;;;;;;6.03;3.60;;;;;;;10.78;78.47;100411.41;5011906;28;20065;-70
2021/08/25 03:14:50;;;;;;;6.00;3.42;;;;;;;10.79;78.48;100413.13;5012301;28;20038;-69
2021/08/25 03:17:16;;;;;;;7.18;4.30;;;;;;;10.80;78.11;100404.28;5011309;28;20042;-69
2021/08/25 03:19:41;;;;;;;6.25;4.53;;;;;;;10.81;77.91;100398.09;5011445;28;20042;-69
2021/08/25 03:22:06;;;;;;;6.22;3.83;;;;;;;10.78;78.18;100402.63;5012407;28;20559;-69
2021/08/25 03:24:32;;;;;;;7.80;4.28;;;;;;;10.78;78.42;100402.63;5011645;28;20493;-69
2021/08/25 03:26:57;;;;;;;9.75;4.80;;;;;;;10.74;78.22;100399.25;5011408;28;20038;-70
2021/08/25 03:29:23;;;;;;;8.27;4.55;;;;;;;10.73;78.54;100402.78;5000244;28;20105;-70
2021/08/25 03:31:48;;;;;;;6.50;3.80;;;;;;;10.73;78.20;100398.41;4991852;28;20034;-70
2021/08/25 03:34:13;;;;;;;9.23;4.07;;;;;;;10.72;78.31;100403.72;4991610;28;20050;-70
2021/08/25 03:36:39;;;;;;;6.57;3.50;;;;;;;10.71;78.49;100391.47;4991624;28;20046;-69
2021/08/25 03:39:04;;;;;;;6.63;4.38;;;;;;;10.70;78.41;100398.50;4992318;28;20085;-69
2021/08/25 03:41:29;;;;;;;5.50;3.85;;;;;;;10.71;78.01;100400.25;4990221;28;20380;-69
2021/08/25 03:43:55;;;;;;;6.75;3.60;;;;;;;10.70;78.19;100398.50;4992465;28;20402;-69
2021/08/25 03:46:20;;;;;;;5.72;3.67;;;;;;;10.64;78.21;100401.41;4991678;28;20112;-69
2021/08/25 03:48:45;;;;;;;6.28;4.10;;;;;;;10.58;78.36;100395.50;4992755;28;20105;-69
2021/08/25 03:51:11;;;;;;;8.90;4.20;;;;;;;10.53;78.89;100396.56;4991225;28;20028;-70
2021/08/25 03:53:37;;;;;;;7.38;4.03;;;;;;;10.56;78.75;100392.06;4991939;28;20069;-69
2021/08/25 03:56:02;;;;;;;6.00;3.35;;;;;;;10.59;78.52;100397.25;4991468;28;20034;-69
2021/08/25 03:58:28;;;;;;;8.57;5.30;;;;;;;10.56;78.42;100392.94;4990928;28;20041;-70
2021/08/25 04:00:53;;;;;;;5.88;3.95;;;;;;;10.55;78.38;100385.94;4995891;28;20117;-69
2021/08/25 04:03:19;;;;;;;10.68;4.15;;;;;;;10.57;78.05;100393.78;5002205;28;20498;-69
2021/08/25 04:05:44;;;;;;;5.20;3.83;;;;;;;10.50;78.30;100387.91;4990415;28;20034;-69
2021/08/25 04:08:09;;;;;;;8.98;4.57;;;;;;;10.43;78.55;100389.91;4990423;28;20027;-69
2021/08/25 04:10:35;;;;;;;10.10;4.78;;;;;;;10.39;78.76;100382.22;4989931;28;20177;-70
2021/08/25 04:13:00;;;;;;;7.88;4.85;;;;;;;10.37;78.97;100392.78;4990956;28;20117;-70
2021/08/25 04:15:25;;;;;;;11.50;4.30;;;;;;;10.37;78.74;100392.78;4990919;28;20034;-69
2021/08/25 04:17:51;;;;;;;9.40;4.47;;;;;;;10.38;78.65;100388.38;4990972;28;20042;-69
2021/08/25 04:20:16;;;;;;;5.95;3.70;;;;;;;10.35;78.40;100386.72;4991076;28;20038;-69
2021/08/25 04:22:41;;;;;;;11.45;4.47;;;;;;;10.28;79.24;100383.44;4991014;28;20149;-69
2021/08/25 04:25:07;;;;;;;6.93;4.40;;;;;;;10.23;79.18;100382.75;4990746;28;20490;-70
2021/08/25 04:27:32;;;;;;;8.68;4.20;;;;;;;10.21;79.26;100383.72;4999853;28;20029;-70
2021/08/25 04:29:58;;;;;;;9.73;4.57;;;;;;;10.17;78.95;100384.78;5009697;28;20069;-70
2021/08/25 04:32:23;;;;;;;9.70;4.05;;;;;;;10.17;79.30;100380.34;5002371;28;20073;-70
2021/08/25 04:34:48;;;;;;;5.13;3.65;;;;;;;10.18;79.21;100376.78;5010159;28;20405;-70
2021/08/25 04:37:14;;;;;;;12.00;5.43;;;;;;;10.18;78.85;100381.22;5008261;28;20092;-70
2021/08/25 04:39:39;;;;;;;7.20;4.22;;;;;;;10.16;78.94;100383.88;5009564;28;20038;-70
2021/08/25 04:42:04;;;;;;;6.68;5.03;;;;;;;10.13;78.96;100375.25;5010218;28;20038;-70
2021/08/25 04:44:30;;;;;;;7.95;4.10;;;;;;;10.12;79.53;100381.44;5009909;28;20089;-70
2021/08/25 04:46:55;;;;;;;7.95;4.28;;;;;;;10.17;79.68;100380.34;5009353;28;20489;-70
2021/08/25 04:49:21;;;;;;;6.45;4.20;;;;;;;10.23;78.98;100377.47;5010582;28;20521;-71
2021/08/25 04:51:46;;;;;;;5.75;4.07;;;;;;;10.28;78.83;100380.81;5008616;28;20063;-69
2021/08/25 04:54:12;;;;;;;6.40;3.58;;;;;;;10.28;79.10;100378.19;5009898;28;20128;-70
2021/08/25 04:56:38;;;;;;;9.50;4.25;;;;;;;10.27;79.05;100375.59;5009224;28;20117;-71
2021/08/25 04:59:03;;;;;;;6.35;3.85;;;;;;;10.29;78.39;100371.16;5009790;28;20041;-69
2021/08/25 05:01:28;;;;;;;7.97;5.30;;;;;;;10.30;78.75;100375.50;5009141;28;20030;-70
2021/08/25 05:03:54;;;;;;;6.13;4.22;;;;;;;10.25;78.44;100370.38;5010090;28;20398;-70
2021/08/25 05:06:19;;;;;;;11.20;5.47;;;;;;;10.26;79.23;100379.13;5009167;28;20040;-70
2021/08/25 05:08:45;;;;;;;8.60;4.65;;;;;;;10.27;79.28;100375.59;5008897;28;20029;-70
2021/08/25 05:11:11;;;;;;;8.27;4.85;;;;;;;10.34;79.34;100373.59;5009062;28;20576;-70
2021/08/25 05:13:38;;;;;;;8.07;4.50;;;;;;;10.37;78.84;100370.84;5009869;28;20100;-70
2021/08/25 05:16:09;;;;;;;6.97;4.35;;;;;;;10.40;78.65;100376.00;5009482;28;20037;-71
2021/08/25 05:18:34;;;;;;;7.00;3.60;;;;;;;10.48;78.63;100363.38;5008787;28;20436;-70
2021/08/25 05:21:00;;;;;;;9.25;3.97;;;;;;;10.49;78.56;100365.97;5008927;28;20044;-70
2021/08/25 05:23:25;;;;;;;8.05;4.32;;;;;;;10.56;78.29;100379.75;5008478;28;20038;-69
2021/08/25 05:25:50;;;;;;;11.05;4.82;;;;;;;10.56;78.86;100374.50;4990477;28;20525;-69
2021/08/25 05:28:16;;;;;;;8.05;3.65;;;;;;;10.67;78.53;100374.06;4989112;28;20449;-69
2021/08/25 05:30:41;;;;;;;6.80;4.15;;;;;;;10.73;78.40;100379.06;4988731;28;20124;-69
2021/08/25 05:33:06;;;;;;;7.68;4.43;;;;;;;10.72;78.61;100380.84;4989458;28;20039;-70
2021/08/25 05:35:32;;;;;;;8.85;5.18;;;;;;;10.77;78.48;100382.44;4989161;28;20038;-69
2021/08/25 05:37:57;;;;;;;8.70;4.05;;;;;;;10.80;78.68;100379.69;4987328;28;20054;-69
2021/08/25 05:40:22;;;;;;;7.22;3.95;;;;;;;10.87;78.54;100375.88;4989858;28;20054;-70
2021/08/25 05:42:48;;;;;;;7.05;5.13;;;;;;;10.96;78.68;100372.88;4990032;28;20499;-70
2021/08/25 05:45:14;;;;;;;9.07;4.85;;;;;;;11.01;78.37;100378.81;4989084;28;20036;-70
2021/08/25 05:47:39;;;;;;;5.72;3.47;;;;;;;11.08;78.28;100389.97;4988322;28;20434;-70
2021/08/25 05:50:07;;;;;;;8.30;4.28;;;;;;;11.17;78.46;100387.81;4988912;28;20057;-71
2021/08/25 05:52:32;;;;;;;7.05;4.10;;;;;;;11.26;77.94;100383.91;4989022;28;20042;-70
2021/08/25 05:54:58;;;;;;;8.90;4.50;;;;;;;11.32;77.57;100380.13;4989305;28;20688;-69
2021/08/25 05:57:23;;;;;;;7.57;4.18;;;;;;;11.41;78.07;100381.53;4989522;28;20061;-69
2021/08/25 05:59:48;;;;;;;7.07;4.25;;;;;;;11.49;77.36;100380.28;4987736;28;20043;-70
2021/08/25 06:02:14;;;;;;;9.77;4.82;;;;;;;11.60;77.49;100380.66;4986166;28;20041;-70
2021/08/25 06:04:39;;;;;;;12.20;5.22;;;;;;;11.69;77.94;100376.78;4988747;28;20041;-70
2021/08/25 06:07:09;;;;;;;10.18;4.32;;;;;;;11.79;77.38;100370.16;4987805;28;20141;-69
2021/08/25 06:09:35;;;;;;;7.20;4.68;;;;;;;11.91;76.87;100373.19;4986860;28;20491;-70
2021/08/25 06:12:00;;;;;;;8.48;4.03;;;;;;;12.01;76.95;100383.28;4988769;28;20030;-69
2021/08/25 06:14:25;;;;;;;8.95;4.60;;;;;;;12.13;76.72;100378.34;4987688;28;20161;-70
2021/08/25 06:16:51;;;;;;;7.60;4.10;;;;;;;12.24;76.69;100381.38;4987371;28;20049;-68
2021/08/25 06:19:16;;;;;;;11.23;4.55;;;;;;;12.34;76.44;100381.78;4989754;28;20502;-70
2021/08/25 06:21:46;;;;;;;7.38;3.53;;;;;;;12.45;75.85;100382.13;4991767;28;20557;-70
2021/08/25 06:24:11;;;;;;;6.50;4.45;;;;;;;12.55;75.79;100372.84;4993284;28;20042;-70
2021/08/25 06:26:37;;;;;;;5.80;3.72;;;;;;;12.68;74.51;100373.09;4992698;28;20434;-69
2021/08/25 06:29:03;;;;;;;7.10;4.88;;;;;;;12.79;74.53;100368.13;4993029;28;20030;-70
2021/08/25 06:31:28;;;;;;;11.43;4.97;;;;;;;12.89;72.63;100373.84;4993177;28;20088;-68
2021/08/25 06:33:53;;;;;;;7.13;5.20;;;;;;;13.02;72.45;100379.38;4993682;28;20042;-69
2021/08/25 06:36:19;;;;;;;7.45;4.80;;;;;;;13.13;71.73;100368.25;4990805;28;20034;-66
2021/08/25 06:38:44;;;;;;;6.35;4.22;;;;;;;13.26;71.84;100366.69;4992802;28;20062;-66
2021/08/25 06:41:09;;;;;;;8.75;4.30;;;;;;;13.40;71.17;100360.72;4987231;28;20489;-67
2021/08/25 06:43:35;;;;;;;13.13;4.97;;;;;;;13.54;70.85;100363.53;4985556;28;20623;-67
2021/08/25 06:46:01;;;;;;;10.95;5.40;;;;;;;13.70;70.58;100361.75;4980976;28;20042;-66
2021/08/25 06:48:27;;;;;;;8.63;4.00;;;;;;;13.84;70.27;100360.19;4982544;28;20042;-66
2021/08/25 06:50:52;;;;;;;9.07;4.60;;;;;;;13.98;69.46;100362.97;4992644;28;20088;-66
2021/08/25 06:53:17;;;;;;;9.10;5.95;;;;;;;14.12;69.56;100362.19;4999886;28;20104;-66
2021/08/25 06:55:43;;;;;;;9.80;5.63;;;;;;;14.26;69.84;100357.00;5012421;28;20044;-65
2021/08/25 06:58:08;;;;;;;16.23;6.82;;;;;;;14.36;68.00;100358.19;5011367;28;20128;-66
2021/08/25 07:00:33;;;;;;;44.17;16.27;;;;;;;14.45;68.02;100355.94;5010013;28;20050;-66
2021/08/25 07:02:58;;;;;;;29.05;10.40;;;;;;;14.58;67.69;100360.53;5002172;28;20122;-66
2021/08/25 07:05:24;;;;;;;16.65;6.07;;;;;;;14.70;66.62;100360.78;5010900;28;20053;-65
2021/08/25 07:07:49;;;;;;;18.98;6.75;;;;;;;14.85;65.80;100359.88;5004462;28;20034;-65
2021/08/25 07:10:15;;;;;;;14.60;6.80;;;;;;;14.93;66.00;100351.47;4992077;28;20502;-66
2021/08/25 07:12:40;;;;;;;12.13;6.60;;;;;;;14.97;65.70;100358.34;4995353;28;20053;-66
2021/08/25 07:15:06;;;;;;;9.43;6.35;;;;;;;15.05;66.00;100350.75;5010547;28;20045;-66
2021/08/25 07:17:31;;;;;;;11.40;6.75;;;;;;;15.12;65.97;100351.25;5009451;28;20128;-66
2021/08/25 07:19:57;;;;;;;14.43;6.63;;;;;;;15.19;65.72;100352.63;5004622;28;20042;-66
2021/08/25 07:22:22;;;;;;;9.80;6.07;;;;;;;15.34;65.93;100356.16;4990783;28;20491;-66
2021/08/25 07:24:47;;;;;;;17.80;7.97;;;;;;;15.45;66.36;100353.69;4992035;28;20482;-65
2021/08/25 07:27:13;;;;;;;18.27;8.98;;;;;;;15.59;64.75;100352.88;4993342;28;20489;-67
2021/08/25 07:29:38;;;;;;;16.67;7.00;;;;;;;15.67;65.20;100348.78;4992176;28;20030;-66
2021/08/25 07:32:04;;;;;;;15.27;6.47;;;;;;;15.78;64.71;100352.63;4997273;28;20061;-67
2021/08/25 07:34:29;;;;;;;8.38;5.15;;;;;;;15.93;64.35;100359.66;4993593;28;20049;-51
2021/08/25 07:36:55;;;;;;;19.63;6.22;;;;;;;16.15;63.86;100359.16;4994302;28;20049;-52
2021/08/25 07:39:21;;;;;;;10.02;7.18;;;;;;;16.37;62.79;100353.31;4988263;28;20063;-47
2021/08/25 07:41:46;;;;;;;10.52;5.82;;;;;;;16.68;61.29;100354.81;4985948;28;20513;-50
2021/08/25 07:44:12;;;;;;;25.35;7.40;;;;;;;16.87;59.36;100357.19;4988283;28;20521;-49
2021/08/25 07:46:37;;;;;;;11.10;6.30;;;;;;;16.85;58.97;100360.91;5004814;28;20045;-48
2021/08/25 07:49:05;;;;;;;11.68;5.60;;;;;;;17.00;59.48;100353.69;5005443;28;20103;-49
2021/08/25 07:51:31;;;;;;;11.77;5.22;;;;;;;17.29;58.67;100354.41;4988297;28;20034;-62
2021/08/25 07:53:56;;;;;;;8.75;4.75;;;;;;;17.13;57.53;100351.91;4986875;28;20053;-70
2021/08/25 07:56:22;;;;;;;9.68;4.60;;;;;;;17.03;58.59;100358.81;4983746;28;20034;-69
2021/08/25 07:58:47;;;;;;;7.68;3.88;;;;;;;17.17;58.36;100348.94;4984687;28;20066;-71
2021/08/25 08:01:13;;;;;;;9.02;4.63;;;;;;;17.31;57.74;100344.50;5003136;28;20037;-69
2021/08/25 08:03:38;;;;;;;9.70;4.03;;;;;;;17.54;58.02;100334.91;5004929;28;20040;-70
2021/08/25 08:06:03;;;;;;;14.07;5.85;;;;;;;17.49;56.45;100334.38;5005481;28;20034;-70
2021/08/25 08:08:29;;;;;;;9.77;3.88;;;;;;;17.51;57.25;100343.13;5006919;28;20038;-70
2021/08/25 08:10:54;;;;;;;9.45;4.38;;;;;;;17.62;56.77;100337.03;5007710;28;20046;-69
2021/08/25 08:13:20;;;;;;;10.52;4.38;;;;;;;17.68;57.06;100337.47;5007964;28;20133;-67
2021/08/25 08:15:46;;;;;;;6.65;4.18;;;;;;;17.78;56.26;100332.34;5006204;28;20826;-67
2021/08/25 08:18:19;;;;;;;88.82;25.00;;;;;;;18.01;58.77;100344.06;4995945;28;20515;-43
2021/08/25 08:20:45;;;;;;;18.50;7.47;;;;;;;18.27;55.23;100352.88;4985378;28;20034;-47
2021/08/25 08:23:10;;;;;;;80.45;30.88;;;;;;;18.54;54.18;100343.81;4985304;28;20526;-47
2021/08/25 08:25:36;;;;;;;43.47;26.00;;;;;;;18.61;53.11;100351.28;4984127;28;20045;-68
2021/08/25 08:28:01;;;;;;;11.95;6.75;;;;;;;18.52;53.46;100351.09;4984994;28;20149;-66
2021/08/25 08:30:26;;;;;;;10.95;8.23;;;;;;;18.52;53.70;100349.25;4998409;28;20034;-69
2021/08/25 08:32:52;;;;;;;13.43;9.40;;;;;;;18.38;54.36;100357.44;5003008;28;20048;-67
2021/08/25 08:35:17;;;;;;;16.02;11.10;;;;;;;18.42;54.63;100351.75;5004926;28;20067;-67
2021/08/25 08:37:43;;;;;;;11.57;5.00;;;;;;;18.40;54.69;100356.34;5003657;28;20144;-67
2021/08/25 08:40:09;;;;;;;9.20;5.18;;;;;;;18.60;54.75;100348.69;5004397;28;20763;-66
2021/08/25 08:42:35;;;;;;;7.30;4.63;;;;;;;18.79;53.69;100346.41;5004003;28;20030;-68
2021/08/25 08:45:03;;;;;;;9.77;6.07;;;;;;;18.88;53.67;100343.06;5004231;28;20514;-68
2021/08/25 08:47:29;;;;;;;11.45;5.93;;;;;;;18.95;53.68;100338.09;5003585;28;20173;-68
2021/08/25 08:49:58;;;;;;;10.70;6.22;;;;;;;19.02;53.92;100342.00;5004848;28;20444;-68
2021/08/25 08:52:25;;;;;;;12.75;5.25;;;;;;;19.16;53.46;100334.75;5004381;28;20046;-68
2021/08/25 08:54:54;;;;;;;11.32;5.38;;;;;;;19.26;52.67;100333.09;5001860;28;20062;-66
2021/08/25 08:57:20;;;;;;;9.23;5.57;;;;;;;19.31;52.98;100328.22;5003307;28;20037;-68
2021/08/25 08:59:46;;;;;;;12.25;7.13;;;;;;;19.31;52.43;100318.38;5004517;28;20140;-67
2021/08/25 09:02:12;;;;;;;13.95;7.07;;;;;;;19.22;53.18;100321.78;4998195;28;20153;-66
2021/08/25 09:04:43;;;;;;;12.13;7.25;;;;;;;19.27;53.23;100322.28;4984797;28;20440;-69
2021/08/25 09:07:19;;;;;;;18.35;6.63;;;;;;;19.26;53.58;100322.41;4983794;28;20041;-70
2021/08/25 09:09:52;;;;;;;15.35;8.55;;;;;;;19.33;53.38;100318.28;4984836;28;20031;-68
2021/08/25 09:12:17;;;;;;;14.43;7.40;;;;;;;19.33;53.12;100315.59;4987278;28;20867;-69
2021/08/25 09:14:43;;;;;;;12.55;6.18;;;;;;;19.41;53.01;100315.84;4998208;28;20038;-68
2021/08/25 09:17:08;;;;;;;14.10;6.82;;;;;;;19.56;52.65;100312.97;4994797;28;20053;-69
2021/08/25 09:19:35;;;;;;;16.15;6.68;;;;;;;19.67;52.04;100316.53;4998170;28;20125;-67
2021/08/25 09:22:02;;;;;;;10.15;5.72;;;;;;;19.64;51.44;100311.41;4997569;28;20038;-67
2021/08/25 09:24:39;;;;;;;10.65;5.43;;;;;;;19.92;51.46;100318.09;4985725;28;20777;-68
2021/08/25 09:27:08;;;;;;;13.57;6.03;;;;;;;20.38;50.31;100326.94;4992196;28;20034;-67
2021/08/25 09:29:39;;;;;;;8.98;4.95;;;;;;;21.07;49.01;100321.22;4998374;28;20050;-70
2021/08/25 09:32:22;;;;;;;13.57;5.75;;;;;;;22.09;45.86;100319.50;4984968;28;20044;-68
2021/08/25 09:34:55;;;;;;;8.40;5.10;;;;;;;23.10;43.07;100319.41;4993463;28;20095;-70
2021/08/25 09:37:21;;;;;;;8.88;4.85;;;;;;;23.98;41.39;100317.34;5000301;28;20511;-67
2021/08/25 09:39:52;;;;;;;16.05;6.28;;;;;;;24.52;40.30;100315.63;5008730;28;20086;-67
2021/08/25 09:42:20;;;;;;;9.95;5.85;;;;;;;25.00;38.74;100308.97;5007752;28;20034;-66
2021/08/25 09:44:46;;;;;;;9.23;4.40;;;;;;;25.70;37.49;100300.06;4994555;28;20038;-67
2021/08/25 09:47:12;;;;;;;9.98;5.28;;;;;;;26.03;36.76;100305.63;5004024;28;20069;-67
2021/08/25 09:49:38;;;;;;;9.88;5.20;;;;;;;26.23;36.45;100300.78;5007732;28;20121;-68
2021/08/25 09:52:05;;;;;;;10.93;5.25;;;;;;;26.66;35.30;100301.59;5009112;28;20052;-69
2021/08/25 09:54:31;;;;;;;8.82;5.60;;;;;;;27.01;34.54;100299.59;5010172;28;20129;-66
2021/08/25 09:56:57;;;;;;;10.43;4.88;;;;;;;27.12;34.07;100299.22;5014168;28;20025;-67
2021/08/25 09:59:23;;;;;;;7.57;4.43;;;;;;;26.80;34.20;100291.97;5015494;28;20052;-67
2021/08/25 10:01:51;;;;;;;6.38;4.82;;;;;;;27.01;34.21;100295.00;5013911;28;22648;-66
2021/08/25 10:04:17;;;;;;;8.40;5.05;;;;;;;27.79;33.17;100294.38;5015350;28;20037;-66
2021/08/25 10:06:44;;;;;;;7.32;5.38;;;;;;;27.45;32.64;100291.09;5014672;28;20442;-65
2021/08/25 10:09:11;;;;;;;6.32;4.03;;;;;;;27.68;33.17;100293.91;5015317;28;20113;-66
2021/08/25 10:11:42;;;;;;;6.40;4.13;;;;;;;28.28;32.07;100285.22;5015433;28;20062;-67
2021/08/25 10:14:17;;;;;;;6.75;4.45;;;;;;;28.17;31.37;100291.03;5011807;28;20096;-66
2021/08/25 10:16:47;;;;;;;9.32;4.35;;;;;;;28.15;30.93;100284.94;5013584;28;20032;-68
2021/08/25 10:19:22;;;;;;;11.43;4.38;;;;;;;28.64;30.18;100281.94;5015051;28;20117;-68
2021/08/25 10:21:48;;;;;;;6.13;4.18;;;;;;;28.73;29.43;100280.88;5015262;28;20645;-68
2021/08/25 10:24:13;;;;;;;20.88;4.30;;;;;;;28.56;29.75;100277.44;5014739;28;20125;-68
2021/08/25 10:27:03;;;;;;;7.15;3.95;;;;;;;28.28;29.92;100282.50;5014961;28;20486;-66
2021/08/25 10:29:29;;;;;;;5.97;4.60;;;;;;;27.92;29.91;100279.47;4993208;28;20561;-66
2021/08/25 10:31:56;;;;;;;6.72;5.00;;;;;;;27.86;28.26;100280.16;5015393;28;20122;-68
2021/08/25 10:34:26;;;;;;;8.30;4.20;;;;;;;28.17;28.18;100269.34;5015401;28;20038;-66
2021/08/25 10:37:12;;;;;;;6.63;4.72;;;;;;;28.10;29.32;100257.50;5015366;28;20037;-67
2021/08/25 10:39:39;;;;;;;5.38;4.28;;;;;;;27.73;28.18;100261.72;5014192;28;20037;-67
2021/08/25 10:42:06;;;;;;;8.30;4.45;;;;;;;27.92;28.36;100261.34;5015356;28;20026;-67
2021/08/25 10:44:37;;;;;;;5.93;4.32;;;;;;;28.29;28.23;100261.66;5015581;28;20033;-67
2021/08/25 10:47:11;;;;;;;6.57;5.15;;;;;;;27.33;28.63;100268.97;5014075;28;20034;-67
2021/08/25 10:49:41;;;;;;;12.43;5.07;;;;;;;26.81;29.65;100258.50;5015030;28;20030;-66
2021/08/25 10:52:15;;;;;;;8.60;4.60;;;;;;;26.55;30.93;100259.47;5015215;28;20040;-66
2021/08/25 10:54:41;;;;;;;9.43;6.32;;;;;;;25.78;30.74;100256.03;5015017;28;20048;-68
2021/08/25 10:57:28;;;;;;;6.65;4.93;;;;;;;24.76;31.34;100246.75;5011381;28;20038;-67
2021/08/25 11:00:06;;;;;;;11.18;4.57;;;;;;;24.27;33.36;100243.56;5014773;28;20033;-66
2021/08/25 11:02:41;;;;;;;8.40;4.60;;;;;;;23.97;35.05;100240.22;5014970;28;20030;-66
2021/08/25 11:05:07;;;;;;;14.85;4.53;;;;;;;23.49;34.13;100238.59;5015120;28;20063;-67
2021/08/25 11:07:41;;;;;;;10.27;4.07;;;;;;;23.55;33.87;100230.78;5011382;28;20080;-67
2021/08/25 11:10:06;;;;;;;6.53;4.00;;;;;;;23.67;34.69;100228.72;5008979;28;20501;-67
2021/08/25 11:12:32;;;;;;;8.80;4.63;;;;;;;23.47;35.84;100219.06;5009084;28;20049;-68
2021/08/25 11:14:58;;;;;;;10.80;4.75;;;;;;;23.44;35.71;100214.81;5013009;28;20140;-66
2021/08/25 11:17:28;;;;;;;6.50;3.53;;;;;;;23.47;35.80;100214.50;5011178;28;20037;-68
2021/08/25 11:20:04;;;;;;;7.88;4.05;;;;;;;23.30;33.28;100210.75;5011977;28;20029;-68